Falfurrias, Texas
Current Conditions -  °F | °C
As of 8:35 AM on Friday 24 Oct 2014 (Local Time) from KBKS Reporting Station
Clear Clear  
Wind Chill: 62°   Ceiling: Unl
Heat Index: 62°   Visibility: 7mi
Dew Point: 61°   Wind: 0mph
Humidity: 96%   Direction: NA
Pressure: 30.13"   Gusts: NA
Location:  27.23°N, 98.14°W
Report Text: KBKS 241335Z AUTO 00000KT 7SM CLR 17/16 A3013 RMK AO1 T01660159
Loading
Personal Weather Stations






























Interactive Weather Map
Tropical Storm Tracking
New forecast layout! Learn more

10-Day Weather Forecast

Advertisements
Track Severe Weather on mobile